Time;durP1;ratioP1;P1;durP2;ratioP2;P2;SDS_P1;SDS_P2;PMS_P1;PMS_P2;Temp;Humidity;BMP_temperature;BMP_pressure;BME280_temperature;BME280_humidity;BME280_pressure;Samples;Min_cycle;Max_cycle;Signal;HPM_P1;HPM_P2
2022/12/14 00:00:49;;;;;;;19.50;10.97;;;;;;;;;;5088103;28;20045;-53
2022/12/14 00:03:37;;;;;;;30.40;16.27;;;;;;;;;;5088075;28;20090;-54
2022/12/14 00:06:28;;;;;;;29.63;18.77;;;;;;;;;;5112947;28;20081;-52
2022/12/14 00:18:06;;;;;;;10.20;6.47;;;;;;;;;;5118134;28;20035;-55
2022/12/14 00:21:20;;;;;;;;;;;;;;;;;;;;;
2022/12/14 00:26:51;;;;;;;8.07;6.10;;;;;;;;;;5120907;28;20115;-56
2022/12/14 00:32:43;;;;;;;6.90;6.20;;;;;;;;;;5071383;28;20031;-51
2022/12/14 00:35:27;;;;;;;9.40;8.43;;;;;;;;;;5130212;28;20457;-52
2022/12/14 00:38:26;;;;;;;;;;;;;;;;;;;;;
2022/12/14 00:41:04;;;;;;;18.87;6.33;;;;;;;;;;5129718;28;20052;-52
2022/12/14 00:43:36;;;;;;;9.23;8.27;;;;;;;;;;5129998;28;20079;-55
2022/12/14 00:46:24;;;;;;;9.20;8.03;;;;;;;;;;5111169;28;20053;-54
2022/12/14 00:49:22;;;;;;;10.67;6.90;;;;;;;;;;5106175;28;20032;-51
2022/12/14 00:52:18;;;;;;;6.37;5.73;;;;;;;;;;5130111;28;20046;-54
2022/12/14 00:55:02;;;;;;;9.50;6.67;;;;;;;;;;5127119;28;20096;-56
2022/12/14 01:03:27;;;;;;;12.53;7.23;;;;;;;;;;5066786;28;20036;-55
2022/12/14 01:06:25;;;;;;;;;;;;;;;;;;;;;
2022/12/14 01:09:00;;;;;;;7.30;5.63;;;;;;;;;;5066878;28;20053;-56
2022/12/14 01:11:48;;;;;;;7.50;6.57;;;;;;;;;;5064415;28;20063;-54
2022/12/14 01:14:21;;;;;;;6.83;5.53;;;;;;;;;;5066687;28;20115;-55
2022/12/14 01:16:56;;;;;;;10.00;6.83;;;;;;;;;;5047607;28;20087;-55
2022/12/14 01:20:03;;;;;;;;;;;;;;;;;;;;;
2022/12/14 01:22:49;;;;;;;6.93;5.50;;;;;;;;;;5016436;28;20136;-54
2022/12/14 01:26:06;;;;;;;11.97;6.50;;;;;;;;;;5109731;28;20027;-53
2022/12/14 01:28:51;;;;;;;6.70;6.07;;;;;;;;;;5122410;28;20083;-54
2022/12/14 01:34:33;;;;;;;5.80;4.73;;;;;;;;;;5128813;28;20091;-52
2022/12/14 01:40:36;;;;;;;5.07;4.57;;;;;;;;;;5065634;28;20037;-52
2022/12/14 01:43:21;;;;;;;8.83;6.07;;;;;;;;;;5128619;28;20034;-53
2022/12/14 01:46:13;;;;;;;8.93;6.43;;;;;;;;;;5129241;28;20027;-54
2022/12/14 01:52:00;;;;;;;10.10;6.33;;;;;;;;;;5066051;28;20045;-52
2022/12/14 01:54:45;;;;;;;8.87;7.83;;;;;;;;;;5066081;28;20040;-54
2022/12/14 01:57:18;;;;;;;6.07;5.63;;;;;;;;;;5106427;28;20063;-53
2022/12/14 02:00:07;;;;;;;9.17;6.50;;;;;;;;;;5128777;28;20104;-52
2022/12/14 02:02:43;;;;;;;9.63;6.93;;;;;;;;;;5085914;28;20047;-54
2022/12/14 02:05:18;;;;;;;8.50;7.43;;;;;;;;;;5034492;28;20033;-51
2022/12/14 02:08:11;;;;;;;6.33;5.17;;;;;;;;;;5085598;28;20037;-51
2022/12/14 02:10:45;;;;;;;6.97;5.57;;;;;;;;;;5083386;28;20048;-54
2022/12/14 02:16:22;;;;;;;9.23;7.47;;;;;;;;;;5089178;28;20074;-54
2022/12/14 02:19:24;;;;;;;;;;;;;;;;;;;;;
2022/12/14 02:22:21;;;;;;;7.10;6.37;;;;;;;;;;5089631;28;20056;-50
2022/12/14 02:25:06;;;;;;;7.33;5.50;;;;;;;;;;5089458;28;20031;-53
2022/12/14 02:27:46;;;;;;;9.13;7.40;;;;;;;;;;5089801;28;20037;-50
2022/12/14 02:30:35;;;;;;;8.70;7.83;;;;;;;;;;5073180;28;20016;-52
2022/12/14 02:33:20;;;;;;;8.90;7.60;;;;;;;;;;5101371;28;20035;-51
2022/12/14 02:36:08;;;;;;;10.73;8.23;;;;;;;;;;5103852;28;20038;-50
2022/12/14 02:38:59;;;;;;;12.57;8.83;;;;;;;;;;5113866;28;20026;-51
2022/12/14 02:41:54;;;;;;;6.23;5.30;;;;;;;;;;5108492;28;20044;-52
2022/12/14 02:44:23;;;;;;;9.60;7.13;;;;;;;;;;5088188;28;20032;-53
2022/12/14 02:47:18;;;;;;;10.87;9.10;;;;;;;;;;5132001;28;20039;-56
2022/12/14 02:50:10;;;;;;;9.63;7.30;;;;;;;;;;5132300;28;20023;-52
2022/12/14 02:53:24;;;;;;;9.03;5.60;;;;;;;;;;5131584;28;20036;-53
2022/12/14 02:56:07;;;;;;;8.50;6.27;;;;;;;;;;5029473;28;20037;-56
2022/12/14 03:01:56;;;;;;;12.93;8.77;;;;;;;;;;5068557;28;20533;-50
2022/12/14 03:04:55;;;;;;;7.60;5.10;;;;;;;;;;5131146;28;20027;-54
2022/12/14 03:07:43;;;;;;;10.57;7.77;;;;;;;;;;5113553;28;20103;-51
2022/12/14 03:10:28;;;;;;;8.17;7.10;;;;;;;;;;5131673;28;20023;-56
2022/12/14 03:16:12;;;;;;;12.40;7.60;;;;;;;;;;5117211;28;20047;-53
2022/12/14 03:18:51;;;;;;;8.75;6.20;;;;;;;;;;5131469;28;20027;-51
2022/12/14 03:21:34;;;;;;;7.63;5.53;;;;;;;;;;5131526;28;20028;-52
2022/12/14 03:27:44;;;;;;;9.67;6.00;;;;;;;;;;5010506;28;20025;-51
2022/12/14 03:33:12;;;;;;;6.87;5.27;;;;;;;;;;5130886;28;20031;-50
2022/12/14 03:35:57;;;;;;;9.27;5.73;;;;;;;;;;5130873;28;20024;-51
2022/12/14 03:38:56;;;;;;;6.90;6.20;;;;;;;;;;5131625;28;20020;-50
2022/12/14 03:42:03;;;;;;;9.30;5.37;;;;;;;;;;5116863;28;20099;-52
2022/12/14 03:47:34;;;;;;;10.63;6.87;;;;;;;;;;5018751;28;20044;-53
2022/12/14 03:50:20;;;;;;;8.03;7.17;;;;;;;;;;5029013;28;20061;-50
2022/12/14 03:53:17;;;;;;;;;;;;;;;;;;;;;
2022/12/14 03:56:02;;;;;;;13.20;7.87;;;;;;;;;;5028872;28;20185;-52
2022/12/14 04:02:03;;;;;;;10.50;9.60;;;;;;;;;;5046053;28;20047;-55
2022/12/14 04:05:07;;;;;;;12.83;6.40;;;;;;;;;;5128783;28;20357;-53
2022/12/14 04:07:55;;;;;;;9.57;8.40;;;;;;;;;;5130193;28;20020;-50
2022/12/14 04:19:15;;;;;;;21.83;7.83;;;;;;;;;;5087543;28;19915;-50
2022/12/14 04:31:23;;;;;;;8.57;5.77;;;;;;;;;;5087953;28;20039;-50
2022/12/14 04:34:07;;;;;;;;;;;;;;;;;;5072439;28;20785;-49
2022/12/14 04:37:01;;;;;;;9.80;6.60;;;;;;;;;;5037103;28;19971;-53
2022/12/14 04:39:43;;;;;;;;;;;;;;;;;;;;;
2022/12/14 04:45:37;;;;;;;8.30;6.30;;;;;;;;;;5097618;28;20054;-54
2022/12/14 04:48:18;;;;;;;7.17;6.00;;;;;;;;;;5130428;28;20034;-52
2022/12/14 04:51:04;;;;;;;;;;;;;;;;;;;;;
2022/12/14 05:03:37;;;;;;;11.67;6.40;;;;;;;;;;5027838;28;20092;-56
2022/12/14 05:06:13;;;;;;;8.40;7.60;;;;;;;;;;4997002;28;20049;-51
2022/12/14 05:08:48;;;;;;;11.60;10.40;;;;;;;;;;5010440;28;20049;-54
2022/12/14 05:17:42;;;;;;;8.70;7.87;;;;;;;;;;4988333;28;20078;-55
2022/12/14 05:20:16;;;;;;;11.27;8.73;;;;;;;;;;5046479;28;20057;-54
2022/12/14 05:23:05;;;;;;;9.80;7.73;;;;;;;;;;5053681;28;20071;-56
2022/12/14 05:25:55;;;;;;;9.60;7.97;;;;;;;;;;5059534;28;20037;-54
2022/12/14 05:28:24;;;;;;;10.67;8.00;;;;;;;;;;5052862;28;20107;-53
2022/12/14 05:37:24;;;;;;;17.17;9.00;;;;;;;;;;4973424;28;20043;-55
2022/12/14 05:40:03;;;;;;;;;;;;;;;;;;;;;
2022/12/14 05:43:01;;;;;;;;;;;;;;;;;;;;;
2022/12/14 05:48:46;;;;;;;9.25;8.32;;;;;;;;;;5008523;28;20028;-54
2022/12/14 05:51:53;;;;;;;12.57;10.07;;;;;;;;;;5035679;28;20040;-54
2022/12/14 05:54:38;;;;;;;10.23;8.50;;;;;;;;;;5035942;28;20541;-55
2022/12/14 05:57:34;;;;;;;12.17;7.83;;;;;;;;;;5034609;28;20471;-55
2022/12/14 06:03:13;;;;;;;13.23;10.07;;;;;;;;;;5094229;28;20424;-55
2022/12/14 06:08:34;;;;;;;11.27;8.90;;;;;;;;;;5094912;28;20027;-55
2022/12/14 06:14:23;;;;;;;11.37;10.30;;;;;;;;;;5095298;28;20036;-57
2022/12/14 06:17:24;;;;;;;15.67;10.73;;;;;;;;;;5039722;28;20132;-57
2022/12/14 06:20:09;;;;;;;12.33;11.03;;;;;;;;;;5115487;28;20054;-57
2022/12/14 06:26:19;;;;;;;12.33;10.13;;;;;;;;;;5112147;28;20038;-57
2022/12/14 06:29:11;;;;;;;9.43;8.07;;;;;;;;;;5072820;28;20039;-56
2022/12/14 06:32:01;;;;;;;18.10;12.93;;;;;;;;;;5012602;28;20406;-57
2022/12/14 06:37:28;;;;;;;9.23;7.60;;;;;;;;;;5106597;28;20333;-57
2022/12/14 06:43:36;;;;;;;16.50;11.03;;;;;;;;;;5114089;28;20457;-58
2022/12/14 06:49:26;;;;;;;10.67;9.07;;;;;;;;;;5103002;28;20115;-57
2022/12/14 06:52:05;;;;;;;;;;;;;;;;;;;;;
2022/12/14 07:03:32;;;;;;;14.40;13.00;;;;;;;;;;5117979;28;20028;-58
2022/12/14 07:09:22;;;;;;;15.57;11.43;;;;;;;;;;5111095;28;20464;-58
2022/12/14 07:12:34;;;;;;;;;;;;;;;;;;;;;
2022/12/14 07:15:15;;;;;;;13.53;10.80;;;;;;;;;;5117780;28;20400;-58
2022/12/14 07:17:46;;;;;;;16.10;12.50;;;;;;;;;;5114808;28;20042;-58
2022/12/14 07:20:48;;;;;;;14.37;11.70;;;;;;;;;;5115972;28;20473;-57
2022/12/14 07:26:52;;;;;;;13.50;11.90;;;;;;;;;;5112098;28;20054;-56
2022/12/14 07:32:38;;;;;;;17.83;12.20;;;;;;;;;;5104525;28;20040;-56
2022/12/14 07:35:05;;;;;;;15.63;14.03;;;;;;;;;;5115213;28;20055;-56
2022/12/14 07:37:54;;;;;;;13.77;10.50;;;;;;;;;;5094985;28;20036;-54
2022/12/14 07:40:58;;;;;;;14.10;11.97;;;;;;;;;;5093991;28;20543;-56
2022/12/14 07:43:46;;;;;;;14.57;12.20;;;;;;;;;;4995615;28;20117;-55
2022/12/14 07:46:32;;;;;;;12.80;11.63;;;;;;;;;;5072374;28;20036;-57
2022/12/14 07:55:17;;;;;;;;;;;;;;;;;;;;;
2022/12/14 07:57:53;;;;;;;13.83;12.20;;;;;;;;;;5060015;28;20526;-54
2022/12/14 08:00:53;;;;;;;19.47;15.63;;;;;;;;;;5074274;28;20435;-57
2022/12/14 08:03:43;;;;;;;15.80;13.87;;;;;;;;;;4999708;28;20038;-51
2022/12/14 08:06:48;;;;;;;;;;;;;;;;;;;;;
2022/12/14 08:09:43;;;;;;;14.03;12.70;;;;;;;;;;5094825;28;20564;-53
2022/12/14 08:12:21;;;;;;;13.93;12.47;;;;;;;;;;5099058;28;20028;-55
2022/12/14 08:15:15;;;;;;;11.77;10.60;;;;;;;;;;5098582;28;20024;-55
2022/12/14 08:21:05;;;;;;;42.83;29.63;;;;;;;;;;5054690;28;20049;-51
2022/12/14 08:30:09;;;;;;;17.77;13.77;;;;;;;;;;5083190;28;20174;-57
2022/12/14 08:32:47;;;;;;;15.53;13.37;;;;;;;;;;5064776;28;20032;-57
2022/12/14 08:38:41;;;;;;;18.07;13.50;;;;;;;;;;5094794;28;20039;-56
2022/12/14 08:41:24;;;;;;;13.47;12.10;;;;;;;;;;5030485;28;20045;-55
2022/12/14 08:44:07;;;;;;;23.20;14.50;;;;;;;;;;5103697;28;20078;-57
2022/12/14 08:46:36;;;;;;;13.37;11.77;;;;;;;;;;5105215;28;20366;-51
2022/12/14 08:49:37;;;;;;;14.07;12.80;;;;;;;;;;5103766;28;20042;-53
2022/12/14 08:52:37;;;;;;;14.70;12.67;;;;;;;;;;5060180;28;20028;-53
2022/12/14 08:58:36;;;;;;;13.37;12.03;;;;;;;;;;5099043;28;20040;-54
2022/12/14 09:01:24;;;;;;;14.63;12.47;;;;;;;;;;5102890;28;20051;-57
2022/12/14 09:04:00;;;;;;;15.10;10.50;;;;;;;;;;5103686;28;20024;-54
2022/12/14 09:09:38;;;;;;;14.63;13.13;;;;;;;;;;5086434;28;20082;-53
2022/12/14 09:12:07;;;;;;;29.17;13.13;;;;;;;;;;5083384;28;20110;-56
2022/12/14 09:14:49;;;;;;;15.23;13.60;;;;;;;;;;5101571;28;20034;-57
2022/12/14 09:17:41;;;;;;;;;;;;;;;;;;;;;
2022/12/14 09:23:47;;;;;;;10.73;9.73;;;;;;;;;;5081788;28;20040;-57
2022/12/14 09:26:22;;;;;;;12.47;9.30;;;;;;;;;;5102660;28;20028;-51
2022/12/14 09:32:03;;;;;;;17.07;11.47;;;;;;;;;;5094022;28;20039;-53
2022/12/14 09:37:52;;;;;;;23.07;18.67;;;;;;;;;;5102232;28;20088;-55
2022/12/14 09:40:19;;;;;;;15.13;13.53;;;;;;;;;;5101487;28;20039;-53
2022/12/14 09:49:23;;;;;;;29.37;25.23;;;;;;;;;;5104031;28;20057;-54
2022/12/14 09:52:15;;;;;;;18.87;12.63;;;;;;;;;;5104430;28;20054;-56
2022/12/14 09:55:03;;;;;;;22.20;15.53;;;;;;;;;;5099738;28;20363;-56
2022/12/14 09:57:58;;;;;;;25.37;14.53;;;;;;;;;;5105157;28;20020;-57
2022/12/14 10:04:08;;;;;;;15.30;12.33;;;;;;;;;;5099748;28;20043;-56
2022/12/14 10:07:22;;;;;;;17.57;13.97;;;;;;;;;;5103345;28;20024;-56
2022/12/14 10:10:19;;;;;;;18.00;12.13;;;;;;;;;;5004989;28;20392;-56
2022/12/14 10:13:09;;;;;;;14.80;13.30;;;;;;;;;;5022539;28;20026;-55
2022/12/14 10:15:45;;;;;;;12.13;9.50;;;;;;;;;;5005836;28;20037;-55
2022/12/14 10:21:52;;;;;;;17.67;12.93;;;;;;;;;;5075892;28;20029;-56
2022/12/14 10:30:53;;;;;;;14.37;12.97;;;;;;;;;;5066827;28;20051;-57
2022/12/14 10:33:43;;;;;;;20.73;14.33;;;;;;;;;;5106306;28;20107;-58
2022/12/14 10:36:32;;;;;;;15.20;13.70;;;;;;;;;;5109857;28;20063;-56
2022/12/14 10:39:45;;;;;;;15.87;14.23;;;;;;;;;;5009994;28;20037;-56
2022/12/14 10:45:31;;;;;;;13.70;12.00;;;;;;;;;;5109752;28;20046;-57
2022/12/14 10:48:26;;;;;;;16.23;13.77;;;;;;;;;;5108862;28;20036;-57
2022/12/14 10:54:28;;;;;;;20.37;18.27;;;;;;;;;;5003239;28;20038;-56
2022/12/14 11:00:10;;;;;;;14.97;13.37;;;;;;;;;;4950427;29;20060;-55
2022/12/14 11:02:47;;;;;;;23.70;16.90;;;;;;;;;;4950204;29;20148;-55
2022/12/14 11:05:38;;;;;;;17.77;14.97;;;;;;;;;;4950387;29;20043;-56
2022/12/14 11:08:22;;;;;;;;;;;;;;;;;;4949496;29;20129;-54
2022/12/14 11:11:14;;;;;;;18.03;16.10;;;;;;;;;;4978786;28;19906;-57
2022/12/14 11:13:50;;;;;;;14.13;12.53;;;;;;;;;;5008063;28;20050;-55
2022/12/14 11:16:37;;;;;;;16.87;13.40;;;;;;;;;;5070534;28;20032;-57
2022/12/14 11:26:04;;;;;;;18.87;15.57;;;;;;;;;;5124916;28;20039;-57
2022/12/14 11:32:10;;;;;;;19.87;17.77;;;;;;;;;;5064535;28;20037;-56
2022/12/14 11:35:17;;;;;;;18.57;16.63;;;;;;;;;;5027352;28;20042;-55
2022/12/14 11:43:59;;;;;;;21.30;16.03;;;;;;;;;;5027003;28;20077;-56
2022/12/14 11:46:49;;;;;;;18.83;16.00;;;;;;;;;;5046623;28;20030;-58
2022/12/14 11:52:45;;;;;;;20.20;16.80;;;;;;;;;;5047549;28;20033;-57
2022/12/14 12:01:59;;;;;;;18.77;16.20;;;;;;;;;;5027728;28;20045;-56
2022/12/14 12:04:41;;;;;;;23.07;17.47;;;;;;;;;;5028788;28;20034;-57
2022/12/14 12:07:27;;;;;;;22.37;17.77;;;;;;;;;;5028937;28;20056;-56
2022/12/14 12:10:09;;;;;;;19.23;17.17;;;;;;;;;;5043384;28;20448;-55
2022/12/14 12:12:35;;;;;;;22.20;16.53;;;;;;;;;;5044345;28;20029;-58
2022/12/14 12:15:28;;;;;;;26.13;17.63;;;;;;;;;;5049734;28;20437;-56
2022/12/14 12:18:19;;;;;;;18.03;15.57;;;;;;;;;;5124942;28;20028;-57
2022/12/14 12:27:28;;;;;;;26.63;15.73;;;;;;;;;;5118089;28;20211;-58
2022/12/14 12:30:22;;;;;;;21.00;16.53;;;;;;;;;;5111418;28;20481;-57
2022/12/14 12:32:53;;;;;;;21.17;17.50;;;;;;;;;;5130014;28;20019;-58
2022/12/14 12:41:46;;;;;;;25.40;16.97;;;;;;;;;;5040971;28;20060;-56
2022/12/14 12:44:49;;;;;;;18.33;16.00;;;;;;;;;;5071040;28;20050;-58
2022/12/14 12:47:37;;;;;;;21.10;17.37;;;;;;;;;;5098388;28;20523;-59
2022/12/14 12:53:36;;;;;;;18.63;14.67;;;;;;;;;;5105239;28;20441;-57
2022/12/14 12:56:12;;;;;;;24.07;17.07;;;;;;;;;;5119658;28;20035;-55
2022/12/14 12:59:04;;;;;;;17.67;15.37;;;;;;;;;;5097636;28;20123;-54
2022/12/14 13:02:11;;;;;;;22.40;17.07;;;;;;;;;;5115430;28;20036;-50
2022/12/14 13:04:51;;;;;;;26.10;19.80;;;;;;;;;;5032180;28;20033;-54
2022/12/14 13:07:37;;;;;;;21.15;18.90;;;;;;;;;;5109884;28;20046;-54
2022/12/14 13:10:37;;;;;;;20.33;17.60;;;;;;;;;;5115516;28;20457;-57
2022/12/14 13:16:47;;;;;;;16.70;14.90;;;;;;;;;;5054700;28;20767;-55
2022/12/14 13:19:43;;;;;;;25.90;16.47;;;;;;;;;;5057452;28;20528;-56
2022/12/14 13:28:53;;;;;;;17.73;15.93;;;;;;;;;;5061810;28;20056;-53
2022/12/14 13:31:49;;;;;;;18.80;16.53;;;;;;;;;;5072620;28;20397;-55
2022/12/14 13:34:45;;;;;;;20.97;18.60;;;;;;;;;;5050246;28;20168;-53
2022/12/14 13:37:44;;;;;;;17.00;14.13;;;;;;;;;;5072527;28;20041;-53
2022/12/14 13:40:42;;;;;;;;;;;;;;;;;;;;;
2022/12/14 13:43:59;;;;;;;23.17;16.23;;;;;;;;;;5022644;28;20036;-56
2022/12/14 13:46:47;;;;;;;21.00;18.87;;;;;;;;;;5009398;28;20040;-53
2022/12/14 13:49:51;;;;;;;;;;;;;;;;;;;;;
2022/12/14 13:55:45;;;;;;;22.67;17.50;;;;;;;;;;5102421;28;20493;-56
2022/12/14 14:04:49;;;;;;;;;;;;;;;;;;;;;
2022/12/14 14:07:37;;;;;;;16.60;14.90;;;;;;;;;;5114493;28;20087;-57
2022/12/14 14:10:40;;;;;;;21.83;16.07;;;;;;;;;;5114508;28;20358;-56
2022/12/14 14:13:25;;;;;;;26.23;19.20;;;;;;;;;;5096370;28;20055;-55
2022/12/14 14:15:52;;;;;;;23.87;18.17;;;;;;;;;;5114148;28;20046;-54
2022/12/14 14:18:20;;;;;;;21.13;18.13;;;;;;;;;;5095990;28;20028;-52
2022/12/14 14:21:11;;;;;;;25.10;16.67;;;;;;;;;;5114258;28;20180;-55
2022/12/14 14:24:01;;;;;;;19.20;15.02;;;;;;;;;;5097442;28;20036;-54
2022/12/14 14:26:40;;;;;;;23.00;15.48;;;;;;;;;;5115113;28;20027;-55
2022/12/14 14:29:41;;;;;;;21.40;19.10;;;;;;;;;;5071053;28;20386;-52
2022/12/14 14:32:28;;;;;;;20.07;15.97;;;;;;;;;;5072734;28;20055;-56
2022/12/14 14:35:26;;;;;;;;;;;;;;;;;;;;;
2022/12/14 14:38:17;;;;;;;18.07;15.03;;;;;;;;;;5068886;28;20047;-53
2022/12/14 14:41:06;;;;;;;25.33;15.50;;;;;;;;;;5048889;28;20044;-55
2022/12/14 14:43:56;;;;;;;18.77;13.33;;;;;;;;;;5049985;28;20140;-54
2022/12/14 14:46:54;;;;;;;19.97;16.80;;;;;;;;;;5047509;28;20086;-55
2022/12/14 14:58:49;;;;;;;;;;;;;;;;;;;;;
2022/12/14 15:01:43;;;;;;;18.13;16.43;;;;;;;;;;5068871;28;20494;-54
2022/12/14 15:04:40;;;;;;;21.83;15.63;;;;;;;;;;5072523;28;20136;-54
2022/12/14 15:07:17;;;;;;;15.43;13.73;;;;;;;;;;5075724;28;20060;-54
2022/12/14 15:13:18;;;;;;;18.90;15.77;;;;;;;;;;5080666;28;20034;-56
2022/12/14 15:15:55;;;;;;;18.47;13.20;;;;;;;;;;5111083;28;20465;-56
2022/12/14 15:18:35;;;;;;;14.30;12.80;;;;;;;;;;5033178;28;20087;-57
2022/12/14 15:21:41;;;;;;;;;;;;;;;;;;;;;
2022/12/14 15:24:11;;;;;;;13.63;11.27;;;;;;;;;;4970752;28;20035;-56
2022/12/14 15:27:06;;;;;;;14.20;12.73;;;;;;;;;;4976162;28;20039;-55
2022/12/14 15:36:42;;;;;;;12.83;11.20;;;;;;;;;;4915552;29;20039;-58
2022/12/14 15:39:46;;;;;;;11.93;10.67;;;;;;;;;;5006859;28;20113;-58
2022/12/14 15:42:27;;;;;;;14.37;11.33;;;;;;;;;;4956590;28;20133;-57
2022/12/14 15:45:23;;;;;;;;;;;;;;;;;;;;;
2022/12/14 15:48:28;;;;;;;10.17;9.00;;;;;;;;;;5016686;28;20032;-55
2022/12/14 15:55:01;;;;;;;17.58;11.63;;;;;;;;;;4993521;28;20230;-57
2022/12/14 15:57:53;;;;;;;11.40;10.20;;;;;;;;;;4917924;29;20028;-56
2022/12/14 16:00:27;;;;;;;17.70;13.70;;;;;;;;;;4984514;28;20031;-56
2022/12/14 16:03:18;;;;;;;17.90;15.20;;;;;;;;;;4995155;28;20042;-53
2022/12/14 16:05:59;;;;;;;13.13;10.57;;;;;;;;;;5055761;28;20040;-55
2022/12/14 16:08:46;;;;;;;;;;;;;;;;;;5079089;28;20020;-54
2022/12/14 16:11:56;;;;;;;;;;;;;;;;;;;;;
2022/12/14 16:15:08;;;;;;;11.47;9.93;;;;;;;;;;5060478;28;20033;-57
2022/12/14 16:21:36;;;;;;;13.60;11.67;;;;;;;;;;4970140;28;20101;-55
2022/12/14 16:24:21;;;;;;;14.73;11.47;;;;;;;;;;4974939;28;20106;-53
2022/12/14 16:36:10;;;;;;;;;;;;;;;;;;5071425;28;20059;-54
2022/12/14 16:42:28;;;;;;;12.87;10.03;;;;;;;;;;4994069;28;20034;-57
2022/12/14 16:48:21;;;;;;;18.43;12.70;;;;;;;;;;4994494;28;20041;-55
2022/12/14 16:51:17;;;;;;;16.13;12.83;;;;;;;;;;4974894;28;20061;-57
2022/12/14 16:54:02;;;;;;;16.30;13.30;;;;;;;;;;5058609;28;20032;-55
2022/12/14 16:56:35;;;;;;;15.47;6.73;;;;;;;;;;5096570;28;20028;-52
2022/12/14 16:59:43;;;;;;;16.53;13.23;;;;;;;;;;5072509;28;20508;-56
2022/12/14 17:02:43;;;;;;;13.57;11.57;;;;;;;;;;4994143;28;20034;-54
2022/12/14 17:08:43;;;;;;;12.20;11.03;;;;;;;;;;5071276;28;20088;-52
2022/12/14 17:11:18;;;;;;;13.73;10.67;;;;;;;;;;5062323;28;20044;-54
2022/12/14 17:17:29;;;;;;;13.07;11.23;;;;;;;;;;5020795;28;20029;-54
2022/12/14 17:20:07;;;;;;;19.97;14.03;;;;;;;;;;5039144;28;20053;-54
2022/12/14 17:22:36;;;;;;;15.47;13.90;;;;;;;;;;5071422;28;20841;-54
2022/12/14 17:25:31;;;;;;;16.73;11.27;;;;;;;;;;5059041;28;20040;-54
2022/12/14 17:28:02;;;;;;;18.57;11.07;;;;;;;;;;5085201;28;20032;-54
2022/12/14 17:30:42;;;;;;;19.07;14.37;;;;;;;;;;5094932;28;20474;-56
2022/12/14 17:36:05;;;;;;;14.20;10.50;;;;;;;;;;5094861;28;20050;-56
2022/12/14 17:42:08;;;;;;;12.13;10.70;;;;;;;;;;5083102;28;20032;-56
2022/12/14 17:45:10;;;;;;;16.90;11.63;;;;;;;;;;5066982;28;20040;-55
2022/12/14 17:51:09;;;;;;;;;;;;;;;;;;;;;
2022/12/14 17:57:36;;;;;;;13.17;9.83;;;;;;;;;;4992924;28;20034;-56
2022/12/14 18:03:27;;;;;;;;;;;;;;;;;;;;;
2022/12/14 18:06:08;;;;;;;;;;;;;;;;;;;;;
2022/12/14 18:08:53;;;;;;;10.90;9.80;;;;;;;;;;5050811;28;20182;-55
2022/12/14 18:17:30;;;;;;;13.40;11.87;;;;;;;;;;5031976;28;20380;-56
2022/12/14 18:20:23;;;;;;;17.23;9.27;;;;;;;;;;5088388;28;20127;-51
2022/12/14 18:23:24;;;;;;;16.93;10.80;;;;;;;;;;5114468;28;20114;-52
2022/12/14 18:26:19;;;;;;;17.73;14.63;;;;;;;;;;5031522;28;20040;-54
2022/12/14 18:28:48;;;;;;;15.23;12.13;;;;;;;;;;5094969;28;20032;-57
2022/12/14 18:31:47;;;;;;;17.23;11.83;;;;;;;;;;5114751;28;20055;-56
2022/12/14 18:34:16;;;;;;;12.23;8.93;;;;;;;;;;5070242;28;20040;-53
2022/12/14 18:37:01;;;;;;;12.80;11.43;;;;;;;;;;5114688;28;20019;-56
2022/12/14 18:39:38;;;;;;;15.90;10.40;;;;;;;;;;5115454;28;20369;-54
2022/12/14 18:45:19;;;;;;;14.40;11.07;;;;;;;;;;5111317;28;20035;-55
2022/12/14 18:51:45;;;;;;;;;;;;;;;;;;;;;
2022/12/14 18:54:54;;;;;;;13.37;11.87;;;;;;;;;;5032154;28;20033;-57
2022/12/14 18:57:45;;;;;;;12.93;11.13;;;;;;;;;;5034840;28;20380;-54
2022/12/14 19:04:01;;;;;;;13.60;10.87;;;;;;;;;;5020199;28;20037;-56
2022/12/14 19:07:05;;;;;;;13.00;11.60;;;;;;;;;;5075866;28;20362;-55
2022/12/14 19:09:55;;;;;;;14.60;10.70;;;;;;;;;;5075502;28;20367;-53
2022/12/14 19:12:34;;;;;;;13.63;11.83;;;;;;;;;;5075369;28;20123;-57
2022/12/14 19:15:50;;;;;;;15.97;10.83;;;;;;;;;;5071363;28;20036;-55
2022/12/14 19:18:34;;;;;;;12.47;11.10;;;;;;;;;;5072070;28;20029;-56
2022/12/14 19:29:55;;;;;;;17.90;13.87;;;;;;;;;;5066280;28;20075;-55
2022/12/14 19:32:51;;;;;;;11.43;10.27;;;;;;;;;;5099401;28;20024;-53
2022/12/14 19:35:33;;;;;;;10.00;9.00;;;;;;;;;;5117067;28;20414;-56
2022/12/14 19:38:32;;;;;;;12.93;11.50;;;;;;;;;;5117069;28;20016;-55
2022/12/14 19:47:41;;;;;;;13.40;10.03;;;;;;;;;;5092525;28;20157;-52
2022/12/14 19:53:24;;;;;;;13.17;10.73;;;;;;;;;;5102610;28;20381;-55
2022/12/14 19:56:15;;;;;;;;;;;;;;;;;;;;;
2022/12/14 19:58:42;;;;;;;13.90;10.13;;;;;;;;;;5117452;28;20377;-56
2022/12/14 20:01:15;;;;;;;14.47;12.90;;;;;;;;;;5116978;28;20424;-56
2022/12/14 20:04:05;;;;;;;14.53;10.30;;;;;;;;;;5098449;28;20031;-55
2022/12/14 20:06:45;;;;;;;17.55;14.40;;;;;;;;;;5115564;28;20466;-56
2022/12/14 20:09:33;;;;;;;12.65;10.18;;;;;;;;;;5117534;28;20031;-54
2022/12/14 20:12:12;;;;;;;;;;;;;;;;;;;;;
2022/12/14 20:18:10;;;;;;;18.23;12.83;;;;;;;;;;5116671;28;20089;-54
2022/12/14 20:21:11;;;;;;;14.93;13.40;;;;;;;;;;5116109;28;20122;-55
2022/12/14 20:23:53;;;;;;;;;;;;;;;;;;;;;
2022/12/14 20:26:42;;;;;;;15.77;13.57;;;;;;;;;;5107236;28;20385;-51
2022/12/14 20:29:32;;;;;;;20.73;15.17;;;;;;;;;;5098268;28;20027;-56
2022/12/14 20:32:21;;;;;;;12.80;11.63;;;;;;;;;;5116595;28;20028;-54
2022/12/14 20:35:26;;;;;;;17.53;15.67;;;;;;;;;;5115854;28;20046;-53
2022/12/14 20:44:15;;;;;;;17.17;10.63;;;;;;;;;;4998785;28;20034;-53
2022/12/14 20:47:07;;;;;;;17.87;14.43;;;;;;;;;;4997142;28;20036;-55
2022/12/14 20:49:56;;;;;;;19.70;14.40;;;;;;;;;;5077388;28;20499;-58
2022/12/14 20:53:02;;;;;;;17.83;15.70;;;;;;;;;;5098060;28;20524;-56
2022/12/14 20:58:58;;;;;;;21.27;16.83;;;;;;;;;;5111881;28;20173;-53
2022/12/14 21:01:56;;;;;;;;;;;;;;;;;;;;;
2022/12/14 21:04:41;;;;;;;14.23;12.70;;;;;;;;;;5115655;28;20126;-56
2022/12/14 21:07:43;;;;;;;16.60;13.87;;;;;;;;;;5097697;28;20512;-52
2022/12/14 21:13:26;;;;;;;17.70;13.90;;;;;;;;;;5077386;28;20084;-53
2022/12/14 21:22:14;;;;;;;22.63;14.63;;;;;;;;;;5115444;28;20527;-53
2022/12/14 21:31:32;;;;;;;18.20;13.50;;;;;;;;;;5116148;28;20131;-52
2022/12/14 21:34:10;;;;;;;17.20;15.10;;;;;;;;;;5115075;28;20028;-55
2022/12/14 21:36:54;;;;;;;25.53;18.43;;;;;;;;;;5115489;28;20039;-52
2022/12/14 21:39:52;;;;;;;16.80;14.33;;;;;;;;;;5115082;28;20068;-54
2022/12/14 21:42:43;;;;;;;17.10;15.10;;;;;;;;;;5095534;28;20036;-50
2022/12/14 21:48:32;;;;;;;20.83;15.03;;;;;;;;;;5100666;28;20028;-55
2022/12/14 21:54:11;;;;;;;16.27;14.57;;;;;;;;;;5075860;28;20110;-54
2022/12/14 21:59:48;;;;;;;16.47;14.77;;;;;;;;;;5114976;28;20451;-53
2022/12/14 22:02:40;;;;;;;13.27;11.73;;;;;;;;;;5125068;28;20057;-54
2022/12/14 22:05:38;;;;;;;17.03;14.37;;;;;;;;;;5117391;28;20088;-50
2022/12/14 22:08:16;;;;;;;18.17;15.37;;;;;;;;;;5045750;28;20145;-53
2022/12/14 22:11:03;;;;;;;17.93;13.67;;;;;;;;;;5063647;28;20032;-55
2022/12/14 22:16:33;;;;;;;13.63;12.20;;;;;;;;;;5127813;28;20058;-55
2022/12/14 22:18:59;;;;;;;16.10;12.53;;;;;;;;;;5105701;28;20043;-54
2022/12/14 22:21:46;;;;;;;17.77;12.97;;;;;;;;;;5092964;28;20055;-54
2022/12/14 22:24:35;;;;;;;17.43;15.60;;;;;;;;;;5084436;28;20470;-54
2022/12/14 22:27:20;;;;;;;13.83;12.23;;;;;;;;;;5076100;28;20072;-53
2022/12/14 22:30:18;;;;;;;12.67;10.83;;;;;;;;;;5080410;28;20037;-52
2022/12/14 22:33:12;;;;;;;;;;;;;;;;;;;;;
2022/12/14 22:35:45;;;;;;;14.87;13.30;;;;;;;;;;5070989;28;20071;-55
2022/12/14 22:38:31;;;;;;;;;;;;;;;;;;;;;
2022/12/14 22:41:27;;;;;;;19.77;17.90;;;;;;;;;;5087352;28;20450;-56
2022/12/14 22:44:33;;;;;;;16.23;10.23;;;;;;;;;;5088928;28;20155;-54
2022/12/14 22:50:15;;;;;;;22.00;13.10;;;;;;;;;;5029045;28;20037;-51
2022/12/14 22:53:31;;;;;;;;;;;;;;;;;;;;;
2022/12/14 22:56:09;;;;;;;;;;;;;;;;;;;;;
2022/12/14 22:58:46;;;;;;;12.47;11.00;;;;;;;;;;4970411;28;20099;-52
2022/12/14 23:01:43;;;;;;;19.17;14.33;;;;;;;;;;5016802;28;20511;-56
2022/12/14 23:07:23;;;;;;;14.03;11.70;;;;;;;;;;5020423;28;20121;-53
